METAR Reports

Area Airport Weather Conditions

KBDL - Windsor Locks, Connecticut, USA
Distance from station: NE 45mi, 72km
Updated: 8:51PM EST, January 15, 2019
Overcast
Overcast
 Wind from WNW
Wind: WNW 6 mph , 9 km/h
Temperature: 27°F , -3°C
Wind Chill: 20°F , -7°C
Dew Point: 19°F , -7°C
Humidity: 74%
Barometer: 30.10 inHg , 1019.3 hPa
Clouds: Overcast
Visibility: 10 miles , 16 km
Cloud details: Few Clouds 3000 ft
Overcast 3600 ft
2019/01/16 01:51 KBDL 160151Z 29005KT 10SM FEW030 OVC036 M03/M07 A3010 RMK AO2 SLP194 T10281067
KDXR - Danbury, Connecticut, USA
Distance from station: SSW 15mi, 24km
Updated: 8:53PM EST, January 15, 2019
Clear
Clear
 Wind from calm
Wind: Calm
Temperature: 19°F , -7°C
Dew Point: 16°F , -9°C
Humidity: 86%
Barometer: 30.12 inHg , 1020 hPa
Clouds: Clear
Visibility: 10 miles , 16 km
2019/01/16 01:53 KDXR 160153Z 00000KT 10SM CLR M07/M09 A3012 RMK AO2 SLP205 T10671094
 
KOXC - Oxford/Waterbury, Connecticut, USA
Distance from station: ESE 16mi, 26km
Updated: 8:51PM EST, January 15, 2019
Clear
Clear
 Wind from calm
Wind: Calm
Temperature: 25°F , -4°C
Dew Point: 19°F , -7°C
Humidity: 80%
Barometer: 30.09 inHg , 1019 hPa
Clouds: Clear
Visibility: 10 miles , 16 km
2019/01/16 01:51 KOXC 160151Z 00000KT 10SM CLR M04/M07 A3009 RMK AO2 SLP212 T10391072
KPOU - Poughkeepsie, New York, USA
Distance from station: W 25mi, 40km
Updated: 8:53PM EST, January 15, 2019
Clear
Clear
 Wind from ESE
Wind: ESE 3 mph , 6 km/h
Barometer: 30.11 inHg , 1019.6 hPa
Clouds: Clear
Visibility: 10 miles , 16 km
2019/01/16 01:53 KPOU 160153Z AUTO 11003KT 10SM CLR A3011 RMK AO2 SLPNO $
 
KMMK - Meriden, Connecticut, USA
Distance from station: E 30mi, 48km
Updated: 8:53PM EST, January 15, 2019
Clear
Clear
 
Temperature: 21°F , -6°C
Dew Point: 18°F , -8°C
Humidity: 86%
Barometer: 30.12 inHg , 1020 hPa
Clouds: Clear
Visibility: 10 miles , 16 km
2019/01/16 01:53 KMMK 160153Z AUTO 10SM CLR M06/M08 A3012 RMK AO2 SLP201 T10561083
KBDR - Bridgeport, Connecticut, USA
Distance from station: SSE 32mi, 51km
Updated: 8:52PM EST, January 15, 2019
Clear
Clear
 Wind from calm
Wind: Calm
Temperature: 27°F , -3°C
Dew Point: 18°F , -8°C
Humidity: 69%
Barometer: 30.13 inHg , 1020.3 hPa
Clouds: Clear
Visibility: 10 miles , 16 km
2019/01/16 01:52 KBDR 160152Z 00000KT 10SM CLR M03/M08 A3013 RMK AO2 SLP202 T10331078
 
KHVN - New Haven/Tweed, Connecticut, USA
Distance from station: SE 35mi, 57km
Updated: 8:53PM EST, January 15, 2019
Clear
Clear
 Wind from calm
Wind: Calm
Temperature: 32°F , 0°C
Dew Point: 21°F , -6°C
Humidity: 64%
Barometer: 30.12 inHg , 1020 hPa
Clouds: Clear
Visibility: 10 miles , 16 km
2019/01/16 01:53 KHVN 160153Z 00000KT 10SM CLR 00/M06 A3012 RMK AO2 SLP200 T00001061
KSWF - Newburgh/Stewart, New York, USA
Distance from station: W 35mi, 57km
Updated: 8:45PM EST, January 15, 2019
Clear
Clear
 Wind from calm
Wind: Calm
Temperature: 25°F , -4°C
Dew Point: 18°F , -8°C
Humidity: 74%
Barometer: 30.10 inHg , 1019.3 hPa
Clouds: Clear
Visibility: 10 miles , 16 km
2019/01/16 01:45 KSWF 160145Z 00000KT 10SM SKC M04/M08 A3010
 
KHPN - White Plains, New York, USA
Distance from station: SSW 38mi, 62km
Updated: 8:56PM EST, January 15, 2019
Clear
Clear
 Wind from calm
Wind: Calm
Temperature: 25°F , -4°C
Dew Point: 14°F , -10°C
Humidity: 63%
Barometer: 30.10 inHg , 1019.3 hPa
Clouds: Clear
Visibility: 10 miles , 16 km
2019/01/16 01:56 KHPN 160156Z 00000KT 10SM CLR M04/M10 A3010
KHFD - Hartford/Brainar, Connecticut, USA
Distance from station: ENE 41mi, 65km
Updated: 8:53PM EST, January 15, 2019
Clear
Clear
 Wind from W
Wind: W 5 mph , 7 km/h
Temperature: 28°F , -2°C
Wind Chill: 22°F , -6°C
Dew Point: 19°F , -7°C
Humidity: 69%
Barometer: 30.12 inHg , 1020 hPa
Clouds: Clear
Visibility: 10 miles , 16 km
2019/01/16 01:53 KHFD 160153Z 27004KT 10SM CLR M02/M07 A3012 RMK AO2 SLP197 T10221072